< < Back
Terminal Aerodrome Forecast


Current Version              Previous Versions:   1  2  3  4  5  6  7  8  9  

Terminal Aerodrome Forecast

357
FTUS42 KGSP 051123
TAFAVL
TAF
KAVL 051123Z 0512/0612 00000KT P6SM FEW006 SCT040 BKN120
      TEMPO 0512/0514 BKN006
     FM051500 18005KT P6SM VCSH BKN040
     FM051800 18008KT P6SM -SHRA VCTS BKN035CB
     FM060200 00000KT P6SM BKN020
     FM060900 00000KT P6SM BKN008=



Latest METAR

407
SAUS70 KWBC 051500 RRG
MTRAVL
METAR KAVL 051454Z 20010KT 10SM SCT023 SCT028 23/17 A3015 RMK AO2 SLP185
T02330172 58001


USA.gov is the U.S. government's official web portal to all federal, state and local government web resources and services.